createdAt,value
2023-02-28T00:00:03.130Z,0.18
2023-02-28T00:02:31.652Z,0.18
2023-02-28T00:04:58.402Z,0.13
2023-02-28T00:07:26.520Z,0.14
2023-02-28T00:09:53.355Z,0.15
2023-02-28T00:12:20.431Z,0.18
2023-02-28T00:14:47.237Z,0.06
2023-02-28T00:17:14.046Z,0.07
2023-02-28T00:19:41.028Z,0.09
2023-02-28T00:22:07.857Z,0.09
2023-02-28T00:24:36.217Z,0.05
2023-02-28T00:27:03.368Z,0.09
2023-02-28T00:29:30.114Z,0.03
2023-02-28T00:31:56.970Z,0.08
2023-02-28T00:34:23.947Z,0.03
2023-02-28T00:36:50.738Z,-0.01
2023-02-28T00:39:18.109Z,-0.01
2023-02-28T00:41:46.282Z,0.12
2023-02-28T00:44:14.557Z,0.08
2023-02-28T00:46:41.382Z,0.10
2023-02-28T00:49:08.178Z,0.07
2023-02-28T00:51:36.260Z,0.00
2023-02-28T00:54:03.196Z,0.02
2023-02-28T00:56:29.946Z,0.00
2023-02-28T00:58:58.610Z,0.01
2023-02-28T01:01:25.525Z,-0.07
2023-02-28T01:03:52.362Z,-0.15
2023-02-28T01:06:19.374Z,-0.14
2023-02-28T01:08:46.293Z,-0.14
2023-02-28T01:11:19.045Z,-0.14
2023-02-28T01:13:49.069Z,-0.12
2023-02-28T01:16:17.533Z,-0.22
2023-02-28T01:18:46.104Z,-0.20
2023-02-28T01:21:16.077Z,-0.25
2023-02-28T01:23:44.180Z,-0.24
2023-02-28T01:26:14.172Z,-0.28
2023-02-28T01:28:41.923Z,-0.26
2023-02-28T01:31:13.464Z,-0.25
2023-02-28T01:33:42.286Z,-0.29
2023-02-28T01:36:13.972Z,-0.30
2023-02-28T01:38:41.535Z,-0.34
2023-02-28T01:41:15.165Z,-0.40
2023-02-28T01:44:00.068Z,-0.47
2023-02-28T01:46:27.157Z,-0.40
2023-02-28T01:49:06.220Z,-0.41
2023-02-28T01:51:41.943Z,-0.44
2023-02-28T01:54:15.930Z,-0.42
2023-02-28T01:56:50.081Z,-0.42
2023-02-28T01:59:25.579Z,-0.49
2023-02-28T02:01:53.921Z,-0.46
2023-02-28T02:04:26.695Z,-0.58
2023-02-28T02:06:53.900Z,-0.53
2023-02-28T02:09:20.733Z,-0.50
2023-02-28T02:11:48.333Z,-0.46
2023-02-28T02:14:49.177Z,-0.49
2023-02-28T02:17:30.018Z,-0.48
2023-02-28T02:20:45.878Z,-0.50
2023-02-28T02:23:52.583Z,-0.52
2023-02-28T02:26:59.278Z,-0.55
2023-02-28T02:30:37.687Z,-0.53
2023-02-28T02:33:29.739Z,-0.59
2023-02-28T02:36:08.138Z,-0.58
2023-02-28T02:38:45.444Z,-0.58
2023-02-28T02:41:24.617Z,-0.65
2023-02-28T02:43:59.236Z,-0.71
2023-02-28T02:46:34.014Z,-0.69
2023-02-28T02:49:06.240Z,-0.67
2023-02-28T02:51:38.663Z,-0.63
2023-02-28T02:54:15.519Z,-0.64
2023-02-28T02:56:45.983Z,-0.69
2023-02-28T02:59:19.793Z,-0.61
2023-02-28T03:01:46.858Z,-0.51
2023-02-28T03:04:20.566Z,-0.57
2023-02-28T03:06:51.442Z,-0.62
2023-02-28T03:09:18.347Z,-0.53
2023-02-28T03:11:46.122Z,-0.54
2023-02-28T03:14:38.926Z,-0.47
2023-02-28T03:17:38.895Z,-0.49
2023-02-28T03:20:22.255Z,-0.47
2023-02-28T03:23:08.907Z,-0.52
2023-02-28T03:25:53.044Z,-0.44
2023-02-28T03:28:32.742Z,-0.49
2023-02-28T03:31:11.281Z,-0.53
2023-02-28T03:33:45.167Z,-0.50
2023-02-28T03:36:19.160Z,-0.47
2023-02-28T03:38:55.286Z,-0.49
2023-02-28T03:41:26.617Z,-0.45
2023-02-28T03:43:59.144Z,-0.42
2023-02-28T03:46:32.576Z,-0.46
2023-02-28T03:49:12.064Z,-0.43
2023-02-28T03:51:44.344Z,-0.38
2023-02-28T03:54:19.161Z,-0.39
2023-02-28T03:56:54.718Z,-0.40
2023-02-28T03:59:29.568Z,-0.47
2023-02-28T04:01:58.659Z,-0.38
2023-02-28T04:04:28.188Z,-0.40
2023-02-28T04:07:04.526Z,-0.41
2023-02-28T04:09:33.285Z,-0.46
2023-02-28T04:12:00.358Z,-0.50
2023-02-28T04:14:27.827Z,-0.47
2023-02-28T04:16:54.900Z,-0.42
2023-02-28T04:19:21.786Z,-0.47
2023-02-28T04:21:51.266Z,-0.48
2023-02-28T04:24:21.788Z,-0.54
2023-02-28T04:26:53.234Z,-0.43
2023-02-28T04:29:22.900Z,-0.28
2023-02-28T04:31:50.711Z,-0.29
2023-02-28T04:34:17.695Z,-0.27
2023-02-28T04:36:44.455Z,-0.28
2023-02-28T04:39:11.253Z,-0.48
2023-02-28T04:41:38.661Z,-0.49
2023-02-28T04:44:06.915Z,-0.41
2023-02-28T04:46:33.855Z,-0.48
2023-02-28T04:49:00.747Z,-0.38
2023-02-28T04:51:28.068Z,-0.40
2023-02-28T04:53:55.979Z,-0.32
2023-02-28T04:56:24.315Z,-0.29
2023-02-28T04:58:51.360Z,-0.29
2023-02-28T05:01:26.627Z,-0.28
2023-02-28T05:03:55.804Z,-0.24
2023-02-28T05:06:25.073Z,-0.15
2023-02-28T05:08:52.950Z,-0.24
2023-02-28T05:11:24.032Z,-0.27
2023-02-28T05:13:52.934Z,-0.22
2023-02-28T05:16:22.126Z,-0.20
2023-02-28T05:18:49.040Z,-0.16
2023-02-28T05:21:29.610Z,0.34
2023-02-28T05:23:58.628Z,0.25
2023-02-28T05:26:26.850Z,-0.02
2023-02-28T05:28:53.796Z,-0.15
2023-02-28T05:31:22.298Z,-0.17
2023-02-28T05:33:49.235Z,-0.26
2023-02-28T05:36:16.128Z,-0.19
2023-02-28T05:38:42.922Z,-0.15
2023-02-28T05:41:11.546Z,-0.13
2023-02-28T05:43:39.013Z,-0.23
2023-02-28T05:46:07.323Z,-0.16
2023-02-28T05:48:37.866Z,-0.14
2023-02-28T05:51:05.847Z,-0.13
2023-02-28T05:53:33.804Z,-0.17
2023-02-28T05:56:00.747Z,-0.12
2023-02-28T05:58:28.676Z,-0.28
2023-02-28T06:00:55.626Z,-0.34
2023-02-28T06:03:22.526Z,-0.28
2023-02-28T06:05:50.906Z,-0.17
2023-02-28T06:08:17.674Z,-0.32
2023-02-28T06:10:44.454Z,-0.26
2023-02-28T06:13:11.432Z,-0.18
2023-02-28T06:15:38.297Z,-0.18
2023-02-28T06:18:05.591Z,-0.35
2023-02-28T06:20:32.389Z,-0.30
2023-02-28T06:23:01.767Z,-0.32
2023-02-28T06:25:29.323Z,-0.22
2023-02-28T06:27:56.850Z,-0.24
2023-02-28T06:30:23.822Z,-0.22
2023-02-28T06:32:50.757Z,-0.29
2023-02-28T06:35:17.840Z,0.17
2023-02-28T06:37:44.716Z,-0.11
2023-02-28T06:40:14.135Z,-0.16
2023-02-28T06:42:41.139Z,-0.26
2023-02-28T06:45:09.639Z,-0.12
2023-02-28T06:47:37.249Z,-0.25
2023-02-28T06:50:06.205Z,-0.12
2023-02-28T06:52:33.084Z,-0.21
2023-02-28T06:55:00.727Z,-0.11
2023-02-28T06:57:32.463Z,-0.05
2023-02-28T06:59:59.756Z,-0.05
2023-02-28T07:02:27.072Z,-0.02
2023-02-28T07:04:54.293Z,0.08
2023-02-28T07:07:21.787Z,0.15
2023-02-28T07:09:48.716Z,0.24
2023-02-28T07:12:15.772Z,0.03
2023-02-28T07:14:43.924Z,0.30
2023-02-28T07:17:11.765Z,0.35
2023-02-28T07:19:39.013Z,1.31
2023-02-28T07:22:06.378Z,1.61
2023-02-28T07:24:33.387Z,2.68
2023-02-28T07:27:00.550Z,2.10
2023-02-28T07:29:28.000Z,2.82
2023-02-28T07:31:56.530Z,3.38
2023-02-28T07:34:23.567Z,2.95
2023-02-28T07:36:54.052Z,2.16
2023-02-28T07:39:21.651Z,2.27
2023-02-28T07:41:48.935Z,1.26
2023-02-28T07:44:16.202Z,2.36
2023-02-28T07:46:43.343Z,3.18
2023-02-28T07:49:11.662Z,3.05
2023-02-28T07:51:44.139Z,3.25
2023-02-28T07:54:11.075Z,3.54
2023-02-28T07:56:37.833Z,4.08
2023-02-28T07:59:05.077Z,3.54
2023-02-28T08:01:32.204Z,3.74
2023-02-28T08:03:59.297Z,4.74
2023-02-28T08:06:27.692Z,5.03
2023-02-28T08:08:54.927Z,3.84
2023-02-28T08:11:21.780Z,3.88
2023-02-28T08:13:48.615Z,4.35
2023-02-28T08:16:15.975Z,3.51
2023-02-28T08:18:42.776Z,3.70
2023-02-28T08:21:11.286Z,3.83
2023-02-28T08:23:40.065Z,3.46
2023-02-28T08:26:07.393Z,2.60
2023-02-28T08:28:34.474Z,3.24
2023-02-28T08:31:01.816Z,3.87
2023-02-28T08:33:28.955Z,4.36
2023-02-28T08:35:56.243Z,3.29
2023-02-28T08:38:24.281Z,3.78
2023-02-28T08:40:59.504Z,2.98
2023-02-28T08:43:26.492Z,3.83
2023-02-28T08:45:53.623Z,3.59
2023-02-28T08:48:20.476Z,4.21
2023-02-28T08:51:06.859Z,2.72
2023-02-28T08:53:34.914Z,2.96
2023-02-28T08:56:06.981Z,2.73
2023-02-28T08:58:34.318Z,1.86
2023-02-28T09:01:01.759Z,2.30
2023-02-28T09:03:28.541Z,2.75
2023-02-28T09:05:57.849Z,2.97
2023-02-28T09:08:26.324Z,3.70
2023-02-28T09:10:53.636Z,3.70
2023-02-28T09:13:22.017Z,2.44
2023-02-28T09:15:48.801Z,2.59
2023-02-28T09:18:16.418Z,2.90
2023-02-28T09:20:44.397Z,3.56
2023-02-28T09:23:13.343Z,2.69
2023-02-28T09:25:47.408Z,2.69
2023-02-28T09:28:14.930Z,3.07
2023-02-28T09:30:44.827Z,3.65
2023-02-28T09:33:11.854Z,4.15
2023-02-28T09:35:38.772Z,5.01
2023-02-28T09:38:10.578Z,3.88
2023-02-28T09:40:49.807Z,3.90
2023-02-28T09:43:31.608Z,3.75
2023-02-28T09:46:08.061Z,4.40
2023-02-28T09:48:42.240Z,4.26
2023-02-28T09:51:31.496Z,4.57
2023-02-28T09:54:01.889Z,4.73
2023-02-28T09:56:36.971Z,3.64
2023-02-28T09:59:14.817Z,2.58
2023-02-28T10:01:58.151Z,2.67
2023-02-28T10:04:44.444Z,3.03
2023-02-28T10:07:46.691Z,2.88
2023-02-28T10:10:24.974Z,2.80
2023-02-28T10:12:57.032Z,2.66
2023-02-28T10:15:30.934Z,2.82
2023-02-28T10:18:09.335Z,2.68
2023-02-28T10:20:41.665Z,2.86
2023-02-28T10:23:18.370Z,2.49
2023-02-28T10:25:54.857Z,2.81
2023-02-28T10:28:21.689Z,2.85
2023-02-28T10:30:51.768Z,2.49
2023-02-28T10:33:25.387Z,2.95
2023-02-28T10:35:53.747Z,3.23
2023-02-28T10:38:24.065Z,3.32
2023-02-28T10:40:51.952Z,3.08
2023-02-28T10:43:24.220Z,4.08
2023-02-28T10:46:00.744Z,4.80
2023-02-28T10:48:36.815Z,4.57
2023-02-28T10:51:06.619Z,4.33
2023-02-28T10:53:57.616Z,3.78
2023-02-28T10:56:27.769Z,3.43
2023-02-28T10:58:57.817Z,3.58
2023-02-28T11:01:36.410Z,3.39
2023-02-28T11:04:18.549Z,3.49
2023-02-28T11:06:46.367Z,3.56
2023-02-28T11:09:25.847Z,3.45
2023-02-28T11:11:52.975Z,3.99
2023-02-28T11:14:26.186Z,4.93
2023-02-28T11:16:55.541Z,5.25
2023-02-28T11:19:29.477Z,7.25
2023-02-28T11:22:02.614Z,4.14
2023-02-28T11:24:36.346Z,4.31
2023-02-28T11:27:04.093Z,6.35
2023-02-28T11:29:33.911Z,6.19
2023-02-28T11:32:13.985Z,5.32
2023-02-28T11:34:44.764Z,4.30
2023-02-28T11:37:16.233Z,5.24
2023-02-28T11:39:44.441Z,5.65
2023-02-28T11:42:50.767Z,6.03
2023-02-28T11:45:43.591Z,5.29
2023-02-28T11:48:22.499Z,6.09
2023-02-28T11:51:16.199Z,5.33
2023-02-28T11:54:12.643Z,7.18
2023-02-28T11:56:45.516Z,4.44
2023-02-28T11:59:38.850Z,4.76
2023-02-28T12:02:24.400Z,5.52
2023-02-28T12:05:20.116Z,4.47
2023-02-28T12:08:05.048Z,4.68
2023-02-28T12:10:45.333Z,4.35
2023-02-28T12:13:25.069Z,4.67
2023-02-28T12:16:18.554Z,4.70
2023-02-28T12:19:07.453Z,4.72
2023-02-28T12:21:58.949Z,4.83
2023-02-28T12:24:59.750Z,4.51
2023-02-28T12:27:33.924Z,4.66
2023-02-28T12:30:14.303Z,4.74
2023-02-28T12:32:47.868Z,4.96
2023-02-28T12:35:22.870Z,4.89
2023-02-28T12:37:59.104Z,5.39
2023-02-28T12:40:44.448Z,4.76
2023-02-28T12:43:17.865Z,5.29
2023-02-28T12:45:51.846Z,5.72
2023-02-28T12:48:27.204Z,5.12
2023-02-28T12:50:55.424Z,4.91
2023-02-28T12:53:34.348Z,5.33
2023-02-28T12:56:17.910Z,6.04
2023-02-28T12:58:51.964Z,5.51
2023-02-28T13:01:46.914Z,5.22
2023-02-28T13:05:48.034Z,4.97
2023-02-28T13:09:04.537Z,4.83
2023-02-28T13:11:41.058Z,4.71
2023-02-28T13:14:24.145Z,4.79
2023-02-28T13:17:19.067Z,4.89
2023-02-28T13:19:58.338Z,4.90
2023-02-28T13:22:41.430Z,4.52
2023-02-28T13:25:52.656Z,4.83
2023-02-28T13:29:29.712Z,5.02
2023-02-28T13:32:33.896Z,5.12
2023-02-28T13:35:44.815Z,5.08
2023-02-28T13:38:39.348Z,4.97
2023-02-28T13:41:44.415Z,5.15
2023-02-28T13:44:14.346Z,5.10
2023-02-28T13:47:24.094Z,5.00
2023-02-28T13:49:54.006Z,5.08
2023-02-28T13:52:24.995Z,5.22
2023-02-28T13:55:25.011Z,4.96
2023-02-28T13:58:11.412Z,5.32
2023-02-28T14:01:04.474Z,5.08
2023-02-28T14:03:56.269Z,4.96
2023-02-28T14:06:30.537Z,4.99
2023-02-28T14:09:02.147Z,5.20
2023-02-28T14:11:34.013Z,5.18
2023-02-28T14:14:03.269Z,5.33
2023-02-28T14:16:41.960Z,5.30
2023-02-28T14:19:15.472Z,5.22
2023-02-28T14:22:15.732Z,5.07
2023-02-28T14:25:15.737Z,5.38
2023-02-28T14:27:57.962Z,5.37
2023-02-28T14:30:56.314Z,5.45
2023-02-28T14:33:40.513Z,5.19
2023-02-28T14:36:18.391Z,5.21
2023-02-28T14:38:52.190Z,5.34
2023-02-28T14:41:30.127Z,5.32
2023-02-28T14:43:59.953Z,5.34
2023-02-28T14:46:36.816Z,5.36
2023-02-28T14:49:06.473Z,5.49
2023-02-28T14:51:33.554Z,5.42
2023-02-28T14:54:04.627Z,5.51
2023-02-28T14:56:37.330Z,5.26
2023-02-28T14:59:06.103Z,5.23
2023-02-28T15:01:33.023Z,5.29
2023-02-28T15:04:06.628Z,5.22
2023-02-28T15:06:34.332Z,5.19
2023-02-28T15:09:14.581Z,5.18
2023-02-28T15:11:42.690Z,5.31
2023-02-28T15:14:19.668Z,5.35
2023-02-28T15:16:58.974Z,5.30
2023-02-28T15:19:30.598Z,5.26
2023-02-28T15:22:04.581Z,5.47
2023-02-28T15:24:43.676Z,5.31
2023-02-28T15:27:20.341Z,5.28
2023-02-28T15:29:51.880Z,5.31
2023-02-28T15:32:29.811Z,5.26
2023-02-28T15:34:59.676Z,5.16
2023-02-28T15:37:34.435Z,5.19
2023-02-28T15:40:14.950Z,5.18
2023-02-28T15:42:42.503Z,5.17
2023-02-28T15:45:35.576Z,5.17
2023-02-28T15:48:12.451Z,5.17
2023-02-28T15:53:53.895Z,5.30
2023-02-28T15:56:56.206Z,5.28
2023-02-28T15:59:27.256Z,5.25
2023-02-28T16:02:22.417Z,5.26
2023-02-28T16:05:20.893Z,5.21
2023-02-28T16:07:48.435Z,5.13
2023-02-28T16:10:16.059Z,5.17
2023-02-28T16:12:44.353Z,5.15
2023-02-28T16:15:22.663Z,5.12
2023-02-28T16:17:50.062Z,5.11
2023-02-28T16:20:19.427Z,5.10
2023-02-28T16:22:46.240Z,5.08
2023-02-28T16:25:14.851Z,5.07
2023-02-28T16:27:49.358Z,5.05
2023-02-28T16:30:22.719Z,5.04
2023-02-28T16:32:50.707Z,4.94
2023-02-28T16:35:19.112Z,4.90
2023-02-28T16:37:46.526Z,4.88
2023-02-28T16:40:16.751Z,4.85
2023-02-28T16:42:47.655Z,4.83
2023-02-28T16:45:21.894Z,4.84
2023-02-28T16:47:50.003Z,4.84
2023-02-28T16:50:20.294Z,4.82
2023-02-28T16:52:48.046Z,4.77
2023-02-28T16:55:15.423Z,4.75
2023-02-28T16:57:46.910Z,4.69
2023-02-28T17:00:15.085Z,4.66
2023-02-28T17:02:43.083Z,4.60
2023-02-28T17:05:12.873Z,4.58
2023-02-28T17:07:39.961Z,4.54
2023-02-28T17:10:16.258Z,4.46
2023-02-28T17:12:44.831Z,4.42
2023-02-28T17:15:14.001Z,4.37
2023-02-28T17:17:42.501Z,4.34
2023-02-28T17:20:14.194Z,4.26
2023-02-28T17:22:42.158Z,4.23
2023-02-28T17:25:11.263Z,4.24
2023-02-28T17:27:38.634Z,4.18
2023-02-28T17:30:17.739Z,4.10
2023-02-28T17:32:44.858Z,4.04
2023-02-28T17:35:13.172Z,3.98
2023-02-28T17:37:40.782Z,3.94
2023-02-28T17:40:14.389Z,3.93
2023-02-28T17:42:41.162Z,3.87
2023-02-28T17:45:10.919Z,3.84
2023-02-28T17:47:38.386Z,3.82
2023-02-28T17:50:06.513Z,3.81
2023-02-28T17:52:33.341Z,3.82
2023-02-28T17:55:00.149Z,3.82
2023-02-28T17:57:27.011Z,3.77
2023-02-28T17:59:53.847Z,3.76
2023-02-28T18:02:22.256Z,3.71
2023-02-28T18:04:49.968Z,3.71
2023-02-28T18:07:16.837Z,3.72
2023-02-28T18:09:43.711Z,3.67
2023-02-28T18:12:10.644Z,3.67
2023-02-28T18:14:37.468Z,3.59
2023-02-28T18:17:04.443Z,3.58
2023-02-28T18:19:32.774Z,3.54
2023-02-28T18:21:59.559Z,3.50
2023-02-28T18:24:26.606Z,3.57
2023-02-28T18:26:53.491Z,3.53
2023-02-28T18:29:23.680Z,3.49
2023-02-28T18:31:50.915Z,3.45
2023-02-28T18:34:18.059Z,3.48
2023-02-28T18:36:46.335Z,3.45
2023-02-28T18:39:13.123Z,3.42
2023-02-28T18:41:40.338Z,3.39
2023-02-28T18:44:19.106Z,3.29
2023-02-28T18:46:47.097Z,3.28
2023-02-28T18:49:13.963Z,3.27
2023-02-28T18:51:41.292Z,3.23
2023-02-28T18:54:09.622Z,3.24
2023-02-28T18:56:36.538Z,3.20
2023-02-28T18:59:03.651Z,3.12
2023-02-28T19:01:30.986Z,3.12
2023-02-28T19:04:00.371Z,3.07
2023-02-28T19:06:28.294Z,3.04
2023-02-28T19:08:56.644Z,3.00
2023-02-28T19:11:26.546Z,2.92
2023-02-28T19:13:53.489Z,2.88
2023-02-28T19:16:22.405Z,2.87
2023-02-28T19:18:49.571Z,2.88
2023-02-28T19:21:21.156Z,2.90
2023-02-28T19:23:48.925Z,2.84
2023-02-28T19:26:18.688Z,2.79
2023-02-28T19:28:47.456Z,2.73
2023-02-28T19:31:23.475Z,2.65
2023-02-28T19:33:51.428Z,2.55
2023-02-28T19:36:19.194Z,2.59
2023-02-28T19:38:46.087Z,2.53
2023-02-28T19:41:16.141Z,2.48
2023-02-28T19:43:44.844Z,2.53
2023-02-28T19:46:14.246Z,2.46
2023-02-28T19:48:41.586Z,2.41
2023-02-28T19:51:11.574Z,2.40
2023-02-28T19:53:41.423Z,2.40
2023-02-28T19:56:09.632Z,2.33
2023-02-28T19:58:37.909Z,2.38
2023-02-28T20:01:10.595Z,2.41
2023-02-28T20:03:38.957Z,2.38
2023-02-28T20:06:10.325Z,2.28
2023-02-28T20:08:38.477Z,2.32
2023-02-28T20:11:08.002Z,2.22
2023-02-28T20:13:35.778Z,2.20
2023-02-28T20:16:06.556Z,2.16
2023-02-28T20:18:33.712Z,2.16
2023-02-28T20:21:02.091Z,2.21
2023-02-28T20:23:29.284Z,2.18
2023-02-28T20:25:59.567Z,2.14
2023-02-28T20:28:26.969Z,2.20
2023-02-28T20:30:53.805Z,2.20
2023-02-28T20:33:20.683Z,2.19
2023-02-28T20:35:47.659Z,2.15
2023-02-28T20:38:15.915Z,2.19
2023-02-28T20:40:43.006Z,2.20
2023-02-28T20:43:09.861Z,2.06
2023-02-28T20:45:36.790Z,2.05
2023-02-28T20:48:03.633Z,2.11
2023-02-28T20:50:30.517Z,2.08
2023-02-28T20:52:57.335Z,2.07
2023-02-28T20:55:25.585Z,2.08
2023-02-28T20:57:52.343Z,2.11
2023-02-28T21:00:20.060Z,2.17
2023-02-28T21:02:47.178Z,2.17
2023-02-28T21:05:14.204Z,2.13
2023-02-28T21:07:41.033Z,2.13
2023-02-28T21:10:09.683Z,2.00
2023-02-28T21:12:38.940Z,1.90
2023-02-28T21:15:07.485Z,1.77
2023-02-28T21:17:34.318Z,1.70
2023-02-28T21:20:02.210Z,1.75
2023-02-28T21:22:29.036Z,1.76
2023-02-28T21:24:55.844Z,1.81
2023-02-28T21:27:22.641Z,1.82
2023-02-28T21:29:50.737Z,1.88
2023-02-28T21:32:17.548Z,1.89
2023-02-28T21:34:44.792Z,1.91
2023-02-28T21:37:11.547Z,1.89
2023-02-28T21:39:38.652Z,1.88
2023-02-28T21:42:05.547Z,1.82
2023-02-28T21:44:33.290Z,1.74
2023-02-28T21:47:01.865Z,1.68
2023-02-28T21:49:29.556Z,1.55
2023-02-28T21:51:57.597Z,1.41
2023-02-28T21:54:24.831Z,1.42
2023-02-28T21:56:52.013Z,1.40
2023-02-28T21:59:19.900Z,1.41
2023-02-28T22:01:49.449Z,1.45
2023-02-28T22:04:18.885Z,1.51
2023-02-28T22:06:45.647Z,1.40
2023-02-28T22:09:12.406Z,1.34
2023-02-28T22:11:39.705Z,1.42
2023-02-28T22:14:11.393Z,1.45
2023-02-28T22:16:50.705Z,1.52
2023-02-28T22:19:21.262Z,1.57
2023-02-28T22:21:49.418Z,1.51
2023-02-28T22:24:16.274Z,1.48
2023-02-28T22:26:43.567Z,1.41
2023-02-28T22:29:10.339Z,1.35
2023-02-28T22:31:37.614Z,1.38
2023-02-28T22:34:16.604Z,1.28
2023-02-28T22:36:45.327Z,1.31
2023-02-28T22:39:12.725Z,1.28
2023-02-28T22:41:40.172Z,1.24
2023-02-28T22:44:07.092Z,1.29
2023-02-28T22:46:36.047Z,1.21
2023-02-28T22:49:05.238Z,1.21
2023-02-28T22:51:32.947Z,1.26
2023-02-28T22:54:01.194Z,1.27
2023-02-28T22:56:30.596Z,1.31
2023-02-28T22:59:00.928Z,1.29
2023-02-28T23:01:30.886Z,1.31
2023-02-28T23:03:58.542Z,1.33
2023-02-28T23:06:30.682Z,1.34
2023-02-28T23:09:03.736Z,1.28
2023-02-28T23:11:34.296Z,1.26
2023-02-28T23:14:01.958Z,1.25
2023-02-28T23:16:33.135Z,1.23
2023-02-28T23:19:03.764Z,1.16
2023-02-28T23:21:31.445Z,1.02
2023-02-28T23:24:03.107Z,1.04
2023-02-28T23:26:31.890Z,1.07
2023-02-28T23:28:59.238Z,1.07
2023-02-28T23:31:26.201Z,1.04
2023-02-28T23:33:53.525Z,1.03
2023-02-28T23:36:20.380Z,0.96
2023-02-28T23:38:50.695Z,0.98
2023-02-28T23:41:21.511Z,0.89
2023-02-28T23:43:48.580Z,0.84
2023-02-28T23:46:16.593Z,0.90
2023-02-28T23:48:44.042Z,0.88
2023-02-28T23:51:14.988Z,0.85
2023-02-28T23:53:44.260Z,0.82
2023-02-28T23:56:15.552Z,0.83
2023-02-28T23:58:45.956Z,0.79
